sensor_id;sensor_type;location;lat;lon;timestamp;pressure;altitude;pressure_sealevel;temperature;humidity
6216;BME280;3141;49.234;9.326;2023-06-19T00:00:26;99137.88;;;24.00;53.90
6216;BME280;3141;49.234;9.326;2023-06-19T00:01:09;99134.31;;;23.95;53.85
6216;BME280;3141;49.234;9.326;2023-06-19T00:01:51;99134.47;;;24.10;53.64
6216;BME280;3141;49.234;9.326;2023-06-19T00:02:33;99130.13;;;24.09;53.31
6216;BME280;3141;49.234;9.326;2023-06-19T00:03:16;99128.50;;;24.08;53.21
6216;BME280;3141;49.234;9.326;2023-06-19T00:03:58;99139.53;;;24.02;53.99
6216;BME280;3141;49.234;9.326;2023-06-19T00:04:40;99142.94;;;23.97;54.11
6216;BME280;3141;49.234;9.326;2023-06-19T00:05:22;99132.59;;;23.89;54.45
6216;BME280;3141;49.234;9.326;2023-06-19T00:06:06;99140.44;;;23.90;54.54
6216;BME280;3141;49.234;9.326;2023-06-19T00:06:48;99135.56;;;23.87;54.61
6216;BME280;3141;49.234;9.326;2023-06-19T00:07:32;99133.91;;;23.81;54.65
6216;BME280;3141;49.234;9.326;2023-06-19T00:08:14;99137.44;;;23.87;54.45
6216;BME280;3141;49.234;9.326;2023-06-19T00:08:56;99138.25;;;23.87;54.75
6216;BME280;3141;49.234;9.326;2023-06-19T00:09:39;99139.38;;;23.91;54.25
6216;BME280;3141;49.234;9.326;2023-06-19T00:10:22;99140.22;;;23.97;53.93
6216;BME280;3141;49.234;9.326;2023-06-19T00:11:04;99139.13;;;23.93;54.65
6216;BME280;3141;49.234;9.326;2023-06-19T00:11:46;99143.44;;;23.94;54.65
6216;BME280;3141;49.234;9.326;2023-06-19T00:12:29;99148.34;;;23.97;54.40
6216;BME280;3141;49.234;9.326;2023-06-19T00:13:11;99141.66;;;23.99;54.05
6216;BME280;3141;49.234;9.326;2023-06-19T00:13:54;99140.00;;;23.98;54.74
6216;BME280;3141;49.234;9.326;2023-06-19T00:14:36;99140.19;;;23.92;54.71
6216;BME280;3141;49.234;9.326;2023-06-19T00:15:18;99139.56;;;23.85;54.81
6216;BME280;3141;49.234;9.326;2023-06-19T00:16:01;99142.03;;;23.86;54.89
6216;BME280;3141;49.234;9.326;2023-06-19T00:16:44;99137.66;;;23.80;55.12
6216;BME280;3141;49.234;9.326;2023-06-19T00:17:27;99135.47;;;23.77;55.11
6216;BME280;3141;49.234;9.326;2023-06-19T00:18:09;99135.66;;;23.71;55.05
6216;BME280;3141;49.234;9.326;2023-06-19T00:18:53;99135.91;;;23.69;55.39
6216;BME280;3141;49.234;9.326;2023-06-19T00:19:37;99136.59;;;23.81;54.96
6216;BME280;3141;49.234;9.326;2023-06-19T00:20:20;99132.59;;;23.89;54.62
6216;BME280;3141;49.234;9.326;2023-06-19T00:21:02;99132.03;;;23.87;54.59
6216;BME280;3141;49.234;9.326;2023-06-19T00:21:48;99128.59;;;23.91;54.34
6216;BME280;3141;49.234;9.326;2023-06-19T00:22:30;99132.25;;;23.80;54.83
6216;BME280;3141;49.234;9.326;2023-06-19T00:23:13;99129.50;;;23.75;54.61
6216;BME280;3141;49.234;9.326;2023-06-19T00:23:59;99126.22;;;23.73;55.21
6216;BME280;3141;49.234;9.326;2023-06-19T00:24:41;99122.78;;;23.78;54.49
6216;BME280;3141;49.234;9.326;2023-06-19T00:25:24;99123.59;;;23.78;54.57
6216;BME280;3141;49.234;9.326;2023-06-19T00:26:06;99131.47;;;23.85;54.45
6216;BME280;3141;49.234;9.326;2023-06-19T00:26:49;99131.13;;;23.76;54.75
6216;BME280;3141;49.234;9.326;2023-06-19T00:27:31;99130.94;;;23.83;54.37
6216;BME280;3141;49.234;9.326;2023-06-19T00:28:13;99130.13;;;23.82;54.27
6216;BME280;3141;49.234;9.326;2023-06-19T00:28:57;99132.56;;;23.84;53.96
6216;BME280;3141;49.234;9.326;2023-06-19T00:29:39;99126.63;;;23.87;54.09
6216;BME280;3141;49.234;9.326;2023-06-19T00:30:21;99125.03;;;23.86;54.41
6216;BME280;3141;49.234;9.326;2023-06-19T00:31:04;99124.72;;;23.82;54.36
6216;BME280;3141;49.234;9.326;2023-06-19T00:31:48;99127.78;;;23.91;53.75
6216;BME280;3141;49.234;9.326;2023-06-19T00:32:31;99128.91;;;23.95;53.74
6216;BME280;3141;49.234;9.326;2023-06-19T00:33:13;99132.97;;;23.97;53.92
6216;BME280;3141;49.234;9.326;2023-06-19T00:33:55;99131.91;;;23.98;53.40
6216;BME280;3141;49.234;9.326;2023-06-19T00:34:39;99130.03;;;23.99;53.86
6216;BME280;3141;49.234;9.326;2023-06-19T00:35:21;99134.94;;;24.02;53.27
6216;BME280;3141;49.234;9.326;2023-06-19T00:36:09;99134.94;;;24.02;53.26
6216;BME280;3141;49.234;9.326;2023-06-19T00:36:52;99137.38;;;24.04;53.33
6216;BME280;3141;49.234;9.326;2023-06-19T00:37:38;99145.75;;;24.02;53.21
6216;BME280;3141;49.234;9.326;2023-06-19T00:38:20;99140.50;;;23.95;53.43
6216;BME280;3141;49.234;9.326;2023-06-19T00:39:02;99137.94;;;23.84;53.89
6216;BME280;3141;49.234;9.326;2023-06-19T00:39:45;99139.81;;;23.83;54.36
6216;BME280;3141;49.234;9.326;2023-06-19T00:40:29;99143.59;;;23.82;54.27
6216;BME280;3141;49.234;9.326;2023-06-19T00:41:11;99136.03;;;23.79;54.20
6216;BME280;3141;49.234;9.326;2023-06-19T00:41:55;99138.38;;;23.71;54.59
6216;BME280;3141;49.234;9.326;2023-06-19T00:42:37;99135.22;;;23.57;54.57
6216;BME280;3141;49.234;9.326;2023-06-19T00:43:19;99141.38;;;23.53;54.89
6216;BME280;3141;49.234;9.326;2023-06-19T00:44:02;99139.31;;;23.60;54.42
6216;BME280;3141;49.234;9.326;2023-06-19T00:44:44;99142.56;;;23.62;54.63
6216;BME280;3141;49.234;9.326;2023-06-19T00:45:27;99140.94;;;23.61;54.65
6216;BME280;3141;49.234;9.326;2023-06-19T00:46:10;99145.28;;;23.62;55.10
6216;BME280;3141;49.234;9.326;2023-06-19T00:47:01;99146.84;;;23.58;55.32
6216;BME280;3141;49.234;9.326;2023-06-19T00:47:44;99146.31;;;23.61;55.62
6216;BME280;3141;49.234;9.326;2023-06-19T00:48:28;99146.41;;;23.66;54.74
6216;BME280;3141;49.234;9.326;2023-06-19T00:49:11;99142.06;;;23.65;54.76
6216;BME280;3141;49.234;9.326;2023-06-19T00:49:53;99143.41;;;23.62;56.13
6216;BME280;3141;49.234;9.326;2023-06-19T00:50:37;99144.97;;;23.58;56.48
6216;BME280;3141;49.234;9.326;2023-06-19T00:51:25;99145.97;;;23.52;56.87
6216;BME280;3141;49.234;9.326;2023-06-19T00:52:08;99148.91;;;23.51;57.09
6216;BME280;3141;49.234;9.326;2023-06-19T00:52:50;99149.41;;;23.48;56.96
6216;BME280;3141;49.234;9.326;2023-06-19T00:53:33;99159.97;;;23.49;56.58
6216;BME280;3141;49.234;9.326;2023-06-19T00:54:16;99158.75;;;23.40;57.01
6216;BME280;3141;49.234;9.326;2023-06-19T00:54:59;99157.97;;;23.40;56.99
6216;BME280;3141;49.234;9.326;2023-06-19T00:55:42;99155.81;;;23.42;57.36
6216;BME280;3141;49.234;9.326;2023-06-19T00:56:26;99155.19;;;23.35;57.44
6216;BME280;3141;49.234;9.326;2023-06-19T00:57:09;99157.34;;;23.33;57.41
6216;BME280;3141;49.234;9.326;2023-06-19T00:57:52;99153.03;;;23.37;57.27
6216;BME280;3141;49.234;9.326;2023-06-19T00:58:35;99157.66;;;23.36;57.37
6216;BME280;3141;49.234;9.326;2023-06-19T00:59:19;99157.91;;;23.35;57.10
6216;BME280;3141;49.234;9.326;2023-06-19T01:00:02;99163.91;;;23.42;57.17
6216;BME280;3141;49.234;9.326;2023-06-19T01:00:49;99162.84;;;23.43;56.70
6216;BME280;3141;49.234;9.326;2023-06-19T01:01:31;99164.97;;;23.41;56.81
6216;BME280;3141;49.234;9.326;2023-06-19T01:02:14;99161.72;;;23.39;57.24
6216;BME280;3141;49.234;9.326;2023-06-19T01:02:58;99164.47;;;23.44;56.55
6216;BME280;3141;49.234;9.326;2023-06-19T01:03:41;99170.75;;;23.49;56.38
6216;BME280;3141;49.234;9.326;2023-06-19T01:04:23;99162.91;;;23.48;56.20
6216;BME280;3141;49.234;9.326;2023-06-19T01:05:07;99161.78;;;23.44;56.32
6216;BME280;3141;49.234;9.326;2023-06-19T01:05:50;99162.28;;;23.41;56.32
6216;BME280;3141;49.234;9.326;2023-06-19T01:06:43;99162.28;;;23.41;56.45
6216;BME280;3141;49.234;9.326;2023-06-19T01:08:03;99172.16;;;23.52;56.19
6216;BME280;3141;49.234;9.326;2023-06-19T01:08:57;99172.16;;;23.52;56.15
6216;BME280;3141;49.234;9.326;2023-06-19T01:09:53;99168.88;;;23.50;56.06
6216;BME280;3141;49.234;9.326;2023-06-19T01:10:52;99174.47;;;23.27;56.81
6216;BME280;3141;49.234;9.326;2023-06-19T01:11:44;99167.56;;;23.31;56.42
6216;BME280;3141;49.234;9.326;2023-06-19T01:12:33;99177.00;;;23.33;56.71
6216;BME280;3141;49.234;9.326;2023-06-19T01:13:21;99169.22;;;23.37;56.30
6216;BME280;3141;49.234;9.326;2023-06-19T01:14:18;99174.94;;;23.40;55.93
6216;BME280;3141;49.234;9.326;2023-06-19T01:15:07;99177.97;;;23.44;55.88
6216;BME280;3141;49.234;9.326;2023-06-19T01:15:50;99182.19;;;23.35;56.56
6216;BME280;3141;49.234;9.326;2023-06-19T01:16:33;99177.78;;;23.29;56.51
6216;BME280;3141;49.234;9.326;2023-06-19T01:17:16;99188.56;;;23.29;56.72
6216;BME280;3141;49.234;9.326;2023-06-19T01:17:58;99186.75;;;23.34;56.44
6216;BME280;3141;49.234;9.326;2023-06-19T01:18:42;99195.66;;;23.35;56.71
6216;BME280;3141;49.234;9.326;2023-06-19T01:19:25;99199.47;;;23.39;56.15
6216;BME280;3141;49.234;9.326;2023-06-19T01:20:08;99186.50;;;23.36;56.24
6216;BME280;3141;49.234;9.326;2023-06-19T01:20:53;99192.72;;;23.36;56.42
6216;BME280;3141;49.234;9.326;2023-06-19T01:21:35;99204.38;;;23.42;56.08
6216;BME280;3141;49.234;9.326;2023-06-19T01:22:24;99206.78;;;23.38;56.16
6216;BME280;3141;49.234;9.326;2023-06-19T01:23:08;99205.31;;;23.31;56.69
6216;BME280;3141;49.234;9.326;2023-06-19T01:23:50;99195.09;;;23.33;56.68
6216;BME280;3141;49.234;9.326;2023-06-19T01:24:33;99202.69;;;23.36;56.63
6216;BME280;3141;49.234;9.326;2023-06-19T01:25:15;99204.06;;;23.38;56.30
6216;BME280;3141;49.234;9.326;2023-06-19T01:25:57;99202.94;;;23.34;56.18
6216;BME280;3141;49.234;9.326;2023-06-19T01:26:40;99206.84;;;23.27;57.19
6216;BME280;3141;49.234;9.326;2023-06-19T01:27:24;99211.66;;;23.25;57.25
6216;BME280;3141;49.234;9.326;2023-06-19T01:28:16;99203.25;;;23.21;57.17
6216;BME280;3141;49.234;9.326;2023-06-19T01:28:58;99207.09;;;23.25;56.91
6216;BME280;3141;49.234;9.326;2023-06-19T01:29:40;99207.34;;;23.24;57.82
6216;BME280;3141;49.234;9.326;2023-06-19T01:30:23;99206.69;;;23.17;58.63
6216;BME280;3141;49.234;9.326;2023-06-19T01:31:13;99207.53;;;23.17;58.44
6216;BME280;3141;49.234;9.326;2023-06-19T01:32:04;99208.25;;;23.13;58.90
6216;BME280;3141;49.234;9.326;2023-06-19T01:33:13;99211.31;;;23.00;59.57
6216;BME280;3141;49.234;9.326;2023-06-19T01:33:58;99214.50;;;22.97;59.30
6216;BME280;3141;49.234;9.326;2023-06-19T01:34:41;99209.50;;;22.88;59.85
6216;BME280;3141;49.234;9.326;2023-06-19T01:35:28;99214.91;;;22.88;59.92
6216;BME280;3141;49.234;9.326;2023-06-19T01:36:11;99209.75;;;22.87;59.71
6216;BME280;3141;49.234;9.326;2023-06-19T01:36:54;99216.03;;;22.92;59.77
6216;BME280;3141;49.234;9.326;2023-06-19T01:37:40;99222.91;;;22.83;60.19
6216;BME280;3141;49.234;9.326;2023-06-19T01:38:25;99220.13;;;22.78;60.28
6216;BME280;3141;49.234;9.326;2023-06-19T01:39:08;99218.91;;;22.86;60.51
6216;BME280;3141;49.234;9.326;2023-06-19T01:39:52;99228.03;;;22.85;60.30
6216;BME280;3141;49.234;9.326;2023-06-19T01:40:36;99226.09;;;22.80;60.61
6216;BME280;3141;49.234;9.326;2023-06-19T01:41:21;99230.41;;;22.81;60.45
6216;BME280;3141;49.234;9.326;2023-06-19T01:42:05;99220.72;;;22.80;60.55
6216;BME280;3141;49.234;9.326;2023-06-19T01:42:48;99223.81;;;22.72;60.48
6216;BME280;3141;49.234;9.326;2023-06-19T01:43:31;99227.97;;;22.80;60.30
6216;BME280;3141;49.234;9.326;2023-06-19T01:44:14;99234.84;;;22.87;59.86
6216;BME280;3141;49.234;9.326;2023-06-19T01:44:57;99230.41;;;22.81;58.00
6216;BME280;3141;49.234;9.326;2023-06-19T01:45:39;99238.69;;;22.92;57.77
6216;BME280;3141;49.234;9.326;2023-06-19T01:46:22;99238.25;;;23.00;56.64
6216;BME280;3141;49.234;9.326;2023-06-19T01:47:11;99231.53;;;23.19;55.68
6216;BME280;3141;49.234;9.326;2023-06-19T01:47:54;99231.28;;;23.37;55.16
6216;BME280;3141;49.234;9.326;2023-06-19T01:48:38;99236.91;;;23.52;54.59
6216;BME280;3141;49.234;9.326;2023-06-19T01:49:21;99239.72;;;23.62;53.95
6216;BME280;3141;49.234;9.326;2023-06-19T01:50:04;99230.88;;;23.66;54.43
6216;BME280;3141;49.234;9.326;2023-06-19T01:50:48;99228.88;;;23.57;53.21
6216;BME280;3141;49.234;9.326;2023-06-19T01:51:30;99232.91;;;23.76;52.83
6216;BME280;3141;49.234;9.326;2023-06-19T01:52:13;99240.13;;;23.97;52.20
6216;BME280;3141;49.234;9.326;2023-06-19T01:52:55;99234.91;;;24.07;51.79
6216;BME280;3141;49.234;9.326;2023-06-19T01:53:37;99236.06;;;24.16;51.78
6216;BME280;3141;49.234;9.326;2023-06-19T01:54:20;99232.66;;;24.26;51.30
6216;BME280;3141;49.234;9.326;2023-06-19T01:55:02;99239.50;;;24.33;51.20
6216;BME280;3141;49.234;9.326;2023-06-19T01:55:45;99244.50;;;24.46;50.86
6216;BME280;3141;49.234;9.326;2023-06-19T01:56:27;99236.94;;;24.48;50.76
6216;BME280;3141;49.234;9.326;2023-06-19T01:57:10;99238.53;;;24.44;50.76
6216;BME280;3141;49.234;9.326;2023-06-19T01:57:52;99241.94;;;24.61;50.16
6216;BME280;3141;49.234;9.326;2023-06-19T01:58:34;99240.34;;;24.65;49.88
6216;BME280;3141;49.234;9.326;2023-06-19T01:59:17;99240.88;;;24.62;50.13
6216;BME280;3141;49.234;9.326;2023-06-19T01:59:59;99238.66;;;24.59;49.86
6216;BME280;3141;49.234;9.326;2023-06-19T02:00:41;99237.03;;;24.58;50.23
6216;BME280;3141;49.234;9.326;2023-06-19T02:01:24;99238.69;;;24.64;50.02
6216;BME280;3141;49.234;9.326;2023-06-19T02:02:06;99239.91;;;24.73;49.58
6216;BME280;3141;49.234;9.326;2023-06-19T02:02:48;99237.84;;;24.85;49.55
6216;BME280;3141;49.234;9.326;2023-06-19T02:03:31;99226.72;;;24.82;49.59
6216;BME280;3141;49.234;9.326;2023-06-19T02:04:13;99236.75;;;24.81;49.82
6216;BME280;3141;49.234;9.326;2023-06-19T02:04:55;99234.56;;;24.83;49.60
6216;BME280;3141;49.234;9.326;2023-06-19T02:05:38;99237.84;;;24.85;49.94
6216;BME280;3141;49.234;9.326;2023-06-19T02:06:21;99231.94;;;24.88;50.12
6216;BME280;3141;49.234;9.326;2023-06-19T02:07:04;99229.09;;;24.73;50.00
6216;BME280;3141;49.234;9.326;2023-06-19T02:07:46;99227.53;;;24.82;49.96
6216;BME280;3141;49.234;9.326;2023-06-19T02:08:28;99238.69;;;24.91;49.87
6216;BME280;3141;49.234;9.326;2023-06-19T02:09:11;99235.28;;;25.00;49.45
6216;BME280;3141;49.234;9.326;2023-06-19T02:09:53;99235.75;;;24.97;49.79
6216;BME280;3141;49.234;9.326;2023-06-19T02:10:36;99236.06;;;25.01;49.85
6216;BME280;3141;49.234;9.326;2023-06-19T02:11:18;99245.28;;;25.05;49.60
6216;BME280;3141;49.234;9.326;2023-06-19T02:12:01;99242.03;;;25.03;49.51
6216;BME280;3141;49.234;9.326;2023-06-19T02:12:43;99236.84;;;24.96;49.91
6216;BME280;3141;49.234;9.326;2023-06-19T02:13:25;99243.09;;;24.97;50.07
6216;BME280;3141;49.234;9.326;2023-06-19T02:14:09;99247.19;;;25.04;49.72
6216;BME280;3141;49.234;9.326;2023-06-19T02:14:52;99241.69;;;24.94;49.97
6216;BME280;3141;49.234;9.326;2023-06-19T02:15:34;99245.53;;;24.98;50.11
6216;BME280;3141;49.234;9.326;2023-06-19T02:16:17;99246.59;;;24.97;50.23
6216;BME280;3141;49.234;9.326;2023-06-19T02:17:00;99240.09;;;24.93;50.31
6216;BME280;3141;49.234;9.326;2023-06-19T02:17:42;99239.25;;;24.93;50.32
6216;BME280;3141;49.234;9.326;2023-06-19T02:18:24;99241.72;;;24.99;50.35
6216;BME280;3141;49.234;9.326;2023-06-19T02:19:07;99248.72;;;24.95;50.59
6216;BME280;3141;49.234;9.326;2023-06-19T02:19:49;99252.59;;;25.04;50.35
6216;BME280;3141;49.234;9.326;2023-06-19T02:20:31;99247.34;;;24.88;50.75
6216;BME280;3141;49.234;9.326;2023-06-19T02:21:14;99250.38;;;24.96;50.52
6216;BME280;3141;49.234;9.326;2023-06-19T02:21:56;99250.97;;;25.03;50.68
6216;BME280;3141;49.234;9.326;2023-06-19T02:22:39;99258.28;;;25.08;50.31
6216;BME280;3141;49.234;9.326;2023-06-19T02:23:21;99254.72;;;25.02;50.71
6216;BME280;3141;49.234;9.326;2023-06-19T02:24:04;99252.56;;;24.99;50.97
6216;BME280;3141;49.234;9.326;2023-06-19T02:24:47;99249.81;;;24.94;51.13
6216;BME280;3141;49.234;9.326;2023-06-19T02:25:29;99243.88;;;24.97;51.15
6216;BME280;3141;49.234;9.326;2023-06-19T02:26:11;99244.13;;;24.96;51.15
6216;BME280;3141;49.234;9.326;2023-06-19T02:26:53;99243.53;;;24.89;51.46
6216;BME280;3141;49.234;9.326;2023-06-19T02:27:36;99238.50;;;25.02;51.36
6216;BME280;3141;49.234;9.326;2023-06-19T02:28:18;99254.81;;;25.13;50.60
6216;BME280;3141;49.234;9.326;2023-06-19T02:29:00;99252.59;;;25.04;50.88
6216;BME280;3141;49.234;9.326;2023-06-19T02:29:43;99250.44;;;25.06;51.22
6216;BME280;3141;49.234;9.326;2023-06-19T02:30:25;99249.34;;;25.07;51.26
6216;BME280;3141;49.234;9.326;2023-06-19T02:31:07;99242.88;;;25.08;51.41
6216;BME280;3141;49.234;9.326;2023-06-19T02:31:50;99251.03;;;25.13;51.20
6216;BME280;3141;49.234;9.326;2023-06-19T02:32:32;99246.16;;;25.10;51.00
6216;BME280;3141;49.234;9.326;2023-06-19T02:33:14;99241.25;;;25.07;51.29
6216;BME280;3141;49.234;9.326;2023-06-19T02:33:57;99234.44;;;25.00;51.68
6216;BME280;3141;49.234;9.326;2023-06-19T02:34:39;99237.72;;;25.02;51.55
6216;BME280;3141;49.234;9.326;2023-06-19T02:35:21;99250.50;;;25.17;51.29
6216;BME280;3141;49.234;9.326;2023-06-19T02:36:04;99248.03;;;25.10;51.65
6216;BME280;3141;49.234;9.326;2023-06-19T02:36:46;99241.38;;;25.23;50.93
6216;BME280;3141;49.234;9.326;2023-06-19T02:37:29;99241.16;;;24.97;51.69
6216;BME280;3141;49.234;9.326;2023-06-19T02:38:11;99242.31;;;25.06;51.69
6216;BME280;3141;49.234;9.326;2023-06-19T02:38:56;99242.88;;;25.08;51.78
6216;BME280;3141;49.234;9.326;2023-06-19T02:39:39;99238.50;;;25.02;51.97
6216;BME280;3141;49.234;9.326;2023-06-19T02:40:21;99235.47;;;24.94;52.05
6216;BME280;3141;49.234;9.326;2023-06-19T02:41:04;99242.22;;;24.91;52.41
6216;BME280;3141;49.234;9.326;2023-06-19T02:41:46;99242.88;;;25.08;52.09
6216;BME280;3141;49.234;9.326;2023-06-19T02:42:28;99239.41;;;25.18;51.65
6216;BME280;3141;49.234;9.326;2023-06-19T02:43:11;99246.25;;;25.26;51.42
6216;BME280;3141;49.234;9.326;2023-06-19T02:43:53;99249.78;;;25.26;51.40
6216;BME280;3141;49.234;9.326;2023-06-19T02:44:35;99248.09;;;25.20;51.47
6216;BME280;3141;49.234;9.326;2023-06-19T02:45:18;99248.97;;;25.31;51.51
6216;BME280;3141;49.234;9.326;2023-06-19T02:46:00;99251.69;;;25.31;51.29
6216;BME280;3141;49.234;9.326;2023-06-19T02:46:42;99245.19;;;25.32;51.38
6216;BME280;3141;49.234;9.326;2023-06-19T02:47:25;99253.91;;;25.39;51.28
6216;BME280;3141;49.234;9.326;2023-06-19T02:48:07;99255.22;;;25.31;51.56
6216;BME280;3141;49.234;9.326;2023-06-19T02:48:49;99249.41;;;25.13;52.34
6216;BME280;3141;49.234;9.326;2023-06-19T02:49:32;99246.09;;;25.00;52.38
6216;BME280;3141;49.234;9.326;2023-06-19T02:50:14;99254.25;;;25.05;52.51
6216;BME280;3141;49.234;9.326;2023-06-19T02:50:56;99258.28;;;25.08;52.56
6216;BME280;3141;49.234;9.326;2023-06-19T02:51:39;99248.81;;;25.05;52.64
6216;BME280;3141;49.234;9.326;2023-06-19T02:52:21;99252.66;;;25.14;52.57
6216;BME280;3141;49.234;9.326;2023-06-19T02:53:03;99261.41;;;25.27;52.08
6216;BME280;3141;49.234;9.326;2023-06-19T02:53:46;99252.94;;;25.18;52.17
6216;BME280;3141;49.234;9.326;2023-06-19T02:54:28;99259.78;;;25.26;52.11
6216;BME280;3141;49.234;9.326;2023-06-19T02:55:10;99262.59;;;25.41;51.61
6216;BME280;3141;49.234;9.326;2023-06-19T02:55:52;99251.31;;;25.49;51.37
6216;BME280;3141;49.234;9.326;2023-06-19T02:56:35;99259.41;;;25.44;51.72
6216;BME280;3141;49.234;9.326;2023-06-19T02:57:17;99258.84;;;25.42;51.72
6216;BME280;3141;49.234;9.326;2023-06-19T02:57:59;99259.63;;;25.42;51.41
6216;BME280;3141;49.234;9.326;2023-06-19T02:58:42;99260.44;;;25.38;51.61
6216;BME280;3141;49.234;9.326;2023-06-19T02:59:24;99258.97;;;25.30;52.38
6216;BME280;3141;49.234;9.326;2023-06-19T03:00:08;99267.91;;;25.31;52.29
6216;BME280;3141;49.234;9.326;2023-06-19T03:00:52;99258.94;;;25.25;52.44
6216;BME280;3141;49.234;9.326;2023-06-19T03:01:34;99264.59;;;25.19;52.42
6216;BME280;3141;49.234;9.326;2023-06-19T03:02:16;99264.66;;;25.29;52.13
6216;BME280;3141;49.234;9.326;2023-06-19T03:02:59;99265.22;;;25.31;51.92
6216;BME280;3141;49.234;9.326;2023-06-19T03:03:41;99259.22;;;25.24;52.31
6216;BME280;3141;49.234;9.326;2023-06-19T03:04:23;99266.47;;;25.18;52.60
6216;BME280;3141;49.234;9.326;2023-06-19T03:05:06;99267.56;;;25.17;53.04
6216;BME280;3141;49.234;9.326;2023-06-19T03:05:48;99267.03;;;25.20;52.95
6216;BME280;3141;49.234;9.326;2023-06-19T03:06:30;99262.75;;;25.24;52.07
6216;BME280;3141;49.234;9.326;2023-06-19T03:07:13;99273.28;;;25.21;52.49
6216;BME280;3141;49.234;9.326;2023-06-19T03:07:58;99273.84;;;25.23;52.78
6216;BME280;3141;49.234;9.326;2023-06-19T03:08:41;99268.66;;;25.16;53.29
6216;BME280;3141;49.234;9.326;2023-06-19T03:09:23;99264.50;;;25.03;53.49
6216;BME280;3141;49.234;9.326;2023-06-19T03:10:06;99275.91;;;25.10;53.38
6216;BME280;3141;49.234;9.326;2023-06-19T03:10:48;99261.78;;;25.03;53.59
6216;BME280;3141;49.234;9.326;2023-06-19T03:11:30;99268.28;;;25.07;53.63
6216;BME280;3141;49.234;9.326;2023-06-19T03:12:12;99272.72;;;25.19;53.31
6216;BME280;3141;49.234;9.326;2023-06-19T03:12:55;99270.28;;;25.17;53.48
6216;BME280;3141;49.234;9.326;2023-06-19T03:13:47;99272.19;;;25.22;53.56
6216;BME280;3141;49.234;9.326;2023-06-19T03:14:30;99270.53;;;25.16;53.80
6216;BME280;3141;49.234;9.326;2023-06-19T03:15:12;99267.03;;;25.20;53.67
6216;BME280;3141;49.234;9.326;2023-06-19T03:15:54;99263.56;;;25.25;53.42
6216;BME280;3141;49.234;9.326;2023-06-19T03:16:37;99266.75;;;25.17;53.63
6216;BME280;3141;49.234;9.326;2023-06-19T03:17:19;99268.16;;;25.24;53.48
6216;BME280;3141;49.234;9.326;2023-06-19T03:18:01;99262.75;;;25.24;53.75
6216;BME280;3141;49.234;9.326;2023-06-19T03:18:46;99268.22;;;25.34;53.51
6216;BME280;3141;49.234;9.326;2023-06-19T03:19:29;99271.25;;;25.38;52.76
6216;BME280;3141;49.234;9.326;2023-06-19T03:20:11;99276.13;;;25.41;52.11
6216;BME280;3141;49.234;9.326;2023-06-19T03:20:54;99279.94;;;25.40;52.56
6216;BME280;3141;49.234;9.326;2023-06-19T03:21:36;99270.75;;;25.46;52.76
6216;BME280;3141;49.234;9.326;2023-06-19T03:22:20;99279.44;;;25.48;53.18
6216;BME280;3141;49.234;9.326;2023-06-19T03:23:03;99288.06;;;25.40;52.76
6216;BME280;3141;49.234;9.326;2023-06-19T03:23:45;99290.78;;;25.45;52.91
6216;BME280;3141;49.234;9.326;2023-06-19T03:24:27;99292.63;;;25.39;53.34
6216;BME280;3141;49.234;9.326;2023-06-19T03:25:10;99290.22;;;25.43;53.63
6216;BME280;3141;49.234;9.326;2023-06-19T03:25:52;99291.88;;;25.44;53.21
6216;BME280;3141;49.234;9.326;2023-06-19T03:26:34;99290.75;;;25.40;54.28
6216;BME280;3141;49.234;9.326;2023-06-19T03:27:17;99292.09;;;25.42;54.08
6216;BME280;3141;49.234;9.326;2023-06-19T03:27:59;99285.59;;;25.38;54.18
6216;BME280;3141;49.234;9.326;2023-06-19T03:28:42;99286.66;;;25.37;53.85
6216;BME280;3141;49.234;9.326;2023-06-19T03:29:24;99293.16;;;25.36;55.03
6216;BME280;3141;49.234;9.326;2023-06-19T03:30:07;99289.31;;;25.32;54.62
6216;BME280;3141;49.234;9.326;2023-06-19T03:30:50;99294.44;;;25.34;54.29
6216;BME280;3141;49.234;9.326;2023-06-19T03:31:32;99293.91;;;25.32;54.43
6216;BME280;3141;49.234;9.326;2023-06-19T03:32:14;99298.16;;;25.18;55.55
6216;BME280;3141;49.234;9.326;2023-06-19T03:32:57;99291.09;;;25.17;55.84
6216;BME280;3141;49.234;9.326;2023-06-19T03:33:39;99290.28;;;25.16;55.79
6216;BME280;3141;49.234;9.326;2023-06-19T03:34:21;99289.50;;;25.21;55.60
6216;BME280;3141;49.234;9.326;2023-06-19T03:35:04;99288.91;;;25.13;55.08
6216;BME280;3141;49.234;9.326;2023-06-19T03:35:47;99291.06;;;25.11;56.01
6216;BME280;3141;49.234;9.326;2023-06-19T03:36:29;99299.72;;;25.13;55.61
6216;BME280;3141;49.234;9.326;2023-06-19T03:37:12;99307.16;;;24.96;56.77
6216;BME280;3141;49.234;9.326;2023-06-19T03:37:54;99310.88;;;24.90;57.30
6216;BME280;3141;49.234;9.326;2023-06-19T03:38:36;99317.69;;;24.93;57.00
6216;BME280;3141;49.234;9.326;2023-06-19T03:39:19;99308.22;;;24.95;56.93
6216;BME280;3141;49.234;9.326;2023-06-19T03:40:02;99310.41;;;24.93;56.52
6216;BME280;3141;49.234;9.326;2023-06-19T03:40:45;99310.44;;;24.98;56.65
6216;BME280;3141;49.234;9.326;2023-06-19T03:41:27;99317.38;;;24.89;57.13
6216;BME280;3141;49.234;9.326;2023-06-19T03:42:10;99310.03;;;24.85;56.91
6216;BME280;3141;49.234;9.326;2023-06-19T03:42:52;99316.59;;;24.94;55.92
6216;BME280;3141;49.234;9.326;2023-06-19T03:43:34;99317.41;;;24.94;56.83
6216;BME280;3141;49.234;9.326;2023-06-19T03:44:17;99321.28;;;25.03;55.87
6216;BME280;3141;49.234;9.326;2023-06-19T03:44:59;99326.44;;;25.05;56.27
6216;BME280;3141;49.234;9.326;2023-06-19T03:45:41;99329.56;;;24.92;56.69
6216;BME280;3141;49.234;9.326;2023-06-19T03:49:54;99327.50;;;25.04;56.83
6216;BME280;3141;49.234;9.326;2023-06-19T03:50:36;99336.44;;;25.04;57.02
6216;BME280;3141;49.234;9.326;2023-06-19T03:51:19;99336.63;;;24.93;56.91
6216;BME280;3141;49.234;9.326;2023-06-19T03:52:01;99338.72;;;24.86;57.58
6216;BME280;3141;49.234;9.326;2023-06-19T03:52:44;99339.22;;;24.83;57.81
6216;BME280;3141;49.234;9.326;2023-06-19T03:53:26;99345.44;;;24.83;57.30
6216;BME280;3141;49.234;9.326;2023-06-19T03:54:08;99345.38;;;24.78;57.67
6216;BME280;3141;49.234;9.326;2023-06-19T03:54:51;99337.53;;;24.77;57.82
6216;BME280;3141;49.234;9.326;2023-06-19T03:55:33;99343.41;;;24.69;58.36
6216;BME280;3141;49.234;9.326;2023-06-19T03:56:15;99349.13;;;24.51;58.91
6216;BME280;3141;49.234;9.326;2023-06-19T03:56:58;99350.50;;;24.53;59.01
6216;BME280;3141;49.234;9.326;2023-06-19T03:57:40;99350.25;;;24.55;58.96
6216;BME280;3141;49.234;9.326;2023-06-19T03:58:22;99351.94;;;24.61;58.43
6216;BME280;3141;49.234;9.326;2023-06-19T03:59:05;99353.38;;;24.68;58.73
6216;BME280;3141;49.234;9.326;2023-06-19T03:59:47;99351.13;;;24.60;59.06